Time;durP1;ratioP1;P1;durP2;ratioP2;P2;SDS_P1;SDS_P2;PMS_P1;PMS_P2;Temp;Humidity;BMP_temperature;BMP_pressure;BME280_temperature;BME280_humidity;BME280_pressure;Samples;Min_cycle;Max_cycle;Signal;HPM_P1;HPM_P2
2022/05/23 00:01:13;;;;;;;5.28;3.40;;;;;;;17.81;60.33;99445.84;5090922;28;20134;-29
2022/05/23 00:03:38;;;;;;;7.53;3.63;;;;;;;17.79;60.31;99454.22;5108886;28;20106;-28
2022/05/23 00:06:05;;;;;;;6.03;3.50;;;;;;;17.66;60.52;99444.88;5109126;28;20031;-29
2022/05/23 00:08:31;;;;;;;7.53;3.58;;;;;;;17.75;60.58;99457.75;5108997;28;20032;-30
2022/05/23 00:10:57;;;;;;;6.45;3.47;;;;;;;17.63;61.07;99450.84;5090509;28;20028;-32
2022/05/23 00:13:23;;;;;;;6.72;3.50;;;;;;;17.75;60.91;99457.75;5109104;28;20035;-32
2022/05/23 00:15:48;;;;;;;6.35;2.95;;;;;;;17.71;60.66;99435.13;5108971;28;20028;-30
2022/05/23 00:18:14;;;;;;;7.93;3.55;;;;;;;17.67;61.50;99446.50;5108618;28;20654;-30
2022/05/23 00:20:39;;;;;;;8.82;4.07;;;;;;;17.64;61.27;99444.34;5108144;28;20027;-32
2022/05/23 00:23:04;;;;;;;5.68;3.70;;;;;;;17.16;63.12;99425.28;5109103;28;20035;-32
2022/05/23 00:25:30;;;;;;;7.38;3.70;;;;;;;17.34;62.30;99431.09;5108605;28;20038;-33
2022/05/23 00:27:55;;;;;;;5.85;3.85;;;;;;;17.47;62.23;99452.03;5108707;28;20055;-29
2022/05/23 00:30:24;;;;;;;5.57;3.88;;;;;;;17.03;63.74;99426.66;5108631;28;20103;-32
2022/05/23 00:35:35;;;;;;;7.00;4.10;;;;;;;17.00;63.83;99459.56;5108482;28;20449;-28
2022/05/23 00:38:01;;;;;;;7.25;3.78;;;;;;;16.78;64.17;99442.91;5108568;28;20123;-29
2022/05/23 00:40:38;;;;;;;7.50;4.10;;;;;;;16.50;65.97;99455.09;5108522;28;20170;-29
2022/05/23 00:43:20;;;;;;;6.40;4.13;;;;;;;16.56;65.67;99449.44;5108692;28;20023;-30
2022/05/23 00:45:47;;;;;;;6.95;4.35;;;;;;;16.83;64.53;99438.31;5089954;28;20031;-31
2022/05/23 00:48:15;;;;;;;6.15;3.90;;;;;;;16.74;64.94;99445.34;5108418;28;20038;-32
2022/05/23 00:50:45;;;;;;;7.57;4.03;;;;;;;16.62;66.00;99442.94;5089568;28;20068;-29
2022/05/23 00:53:12;;;;;;;7.95;4.47;;;;;;;16.74;65.47;99450.72;5108360;28;20087;-30
2022/05/23 00:55:42;;;;;;;5.60;3.63;;;;;;;16.60;66.07;99455.09;5089510;28;20804;-28
2022/05/23 00:58:17;;;;;;;8.23;4.57;;;;;;;16.53;66.51;99441.09;5108264;28;20031;-30
2022/05/23 01:00:42;;;;;;;6.15;4.13;;;;;;;16.46;66.21;99428.72;5089346;28;20030;-32
2022/05/23 01:03:12;;;;;;;5.47;3.90;;;;;;;16.81;65.14;99445.88;5108185;28;20027;-30
2022/05/23 01:05:39;;;;;;;6.18;4.18;;;;;;;16.74;64.79;99444.53;5107950;28;20055;-30
2022/05/23 01:08:05;;;;;;;6.40;4.15;;;;;;;16.48;65.53;99448.09;5089695;28;20015;-29
2022/05/23 01:10:33;;;;;;;6.10;4.28;;;;;;;16.63;64.58;99439.19;5088855;28;20058;-29
2022/05/23 01:12:58;;;;;;;6.23;4.30;;;;;;;16.46;64.71;99444.06;5108105;28;20031;-30
2022/05/23 01:15:26;;;;;;;6.60;4.00;;;;;;;16.38;65.07;99436.56;5107980;28;20622;-30
2022/05/23 01:17:52;;;;;;;6.80;3.83;;;;;;;16.38;65.05;99437.34;5107602;28;20465;-31
2022/05/23 01:20:19;;;;;;;7.38;4.03;;;;;;;16.10;65.58;99424.50;5107831;28;20064;-28
2022/05/23 01:23:19;;;;;;;5.82;3.80;;;;;;;16.35;64.68;99443.28;5107616;28;20042;-30
2022/05/23 01:25:46;;;;;;;7.72;4.22;;;;;;;16.26;65.42;99431.47;5107582;28;20495;-31
2022/05/23 01:28:13;;;;;;;7.10;4.13;;;;;;;16.19;65.58;99430.94;5089284;28;20454;-30
2022/05/23 01:30:40;;;;;;;6.20;4.05;;;;;;;15.98;65.65;99406.78;5087996;28;20430;-34
2022/05/23 01:33:06;;;;;;;5.60;4.13;;;;;;;15.68;67.48;99439.81;5089125;28;20531;-29
2022/05/23 01:35:32;;;;;;;5.57;4.13;;;;;;;16.01;66.08;99443.88;5107295;28;20552;-28
2022/05/23 01:37:58;;;;;;;7.43;4.18;;;;;;;16.02;66.14;99455.44;5107489;28;20027;-29
2022/05/23 01:40:24;;;;;;;5.93;4.10;;;;;;;15.97;66.24;99442.00;5107309;28;20062;-31
2022/05/23 01:42:50;;;;;;;7.75;4.60;;;;;;;15.77;66.90;99453.53;5088744;28;20082;-31
2022/05/23 01:45:19;;;;;;;7.90;3.75;;;;;;;15.41;67.63;99424.72;5107263;28;20135;-29
2022/05/23 01:47:45;;;;;;;7.03;4.65;;;;;;;15.43;68.47;99444.06;5106948;28;20024;-28
2022/05/23 01:50:11;;;;;;;6.32;3.88;;;;;;;15.64;67.90;99434.16;5088939;28;20119;-28
2022/05/23 01:52:37;;;;;;;7.07;4.25;;;;;;;15.42;68.45;99447.81;5107416;28;20043;-29
2022/05/23 01:55:03;;;;;;;11.68;5.38;;;;;;;15.45;67.92;99427.69;5107391;28;20028;-28
2022/05/23 01:57:32;;;;;;;6.20;4.32;;;;;;;15.21;69.53;99438.91;5088881;28;20027;-30
2022/05/23 02:02:44;;;;;;;8.95;4.78;;;;;;;15.30;69.15;99444.56;5106871;28;20476;-29
2022/05/23 02:05:10;;;;;;;8.55;5.40;;;;;;;15.37;69.72;99436.28;5107241;28;20080;-30
2022/05/23 02:07:36;;;;;;;8.43;4.70;;;;;;;15.29;69.78;99432.22;5106918;28;20031;-29
2022/05/23 02:10:01;;;;;;;6.93;4.75;;;;;;;15.13;70.03;99417.94;5106918;28;20080;-30
2022/05/23 02:12:27;;;;;;;7.05;4.38;;;;;;;15.13;70.85;99426.00;5106966;28;20570;-29
2022/05/23 02:14:52;;;;;;;8.85;4.68;;;;;;;15.21;70.66;99430.84;5106737;28;20031;-30
2022/05/23 02:17:18;;;;;;;10.07;5.13;;;;;;;15.35;70.30;99422.31;5107443;28;20458;-30
2022/05/23 02:19:43;;;;;;;7.82;4.70;;;;;;;15.28;71.03;99430.59;5107041;28;20024;-30
2022/05/23 02:22:09;;;;;;;8.40;4.68;;;;;;;15.13;72.07;99434.06;5088672;28;20034;-30
2022/05/23 02:24:34;;;;;;;10.68;5.53;;;;;;;15.38;70.80;99445.94;5106544;28;20043;-29
2022/05/23 02:27:00;;;;;;;8.15;4.88;;;;;;;15.44;70.32;99439.50;5106863;28;20032;-30
2022/05/23 02:29:26;;;;;;;7.22;4.22;;;;;;;15.49;70.12;99426.09;5107200;28;20027;-30
2022/05/23 02:31:51;;;;;;;8.43;4.72;;;;;;;15.45;70.27;99420.44;5088627;28;20039;-33
2022/05/23 02:34:18;;;;;;;6.93;5.10;;;;;;;15.52;69.96;99428.22;5088763;28;20024;-28
2022/05/23 02:36:44;;;;;;;9.30;5.00;;;;;;;15.52;69.99;99430.91;5106457;28;20035;-31
2022/05/23 02:39:09;;;;;;;6.88;4.97;;;;;;;15.62;69.80;99430.94;5088312;28;20039;-29
2022/05/23 02:41:35;;;;;;;7.32;4.80;;;;;;;15.57;69.37;99428.25;5106851;28;20020;-30
2022/05/23 02:44:01;;;;;;;6.40;4.72;;;;;;;15.59;69.56;99425.28;5110522;28;20031;-29
2022/05/23 02:46:28;;;;;;;12.13;5.32;;;;;;;15.48;69.82;99425.25;5110845;28;20030;-32
2022/05/23 02:48:54;;;;;;;8.48;4.50;;;;;;;15.31;70.41;99423.91;5110718;28;20169;-28
2022/05/23 02:51:19;;;;;;;7.53;4.70;;;;;;;15.35;71.05;99425.00;5092112;28;20028;-29
2022/05/23 02:53:45;;;;;;;8.55;5.03;;;;;;;15.15;70.86;99415.81;5110838;28;20036;-28
2022/05/23 02:56:11;;;;;;;7.85;4.93;;;;;;;15.31;70.93;99415.84;5110528;28;20027;-33
2022/05/23 02:58:36;;;;;;;6.38;4.78;;;;;;;15.60;69.57;99432.28;5110025;28;20767;-32
2022/05/23 03:01:02;;;;;;;6.38;4.60;;;;;;;15.30;69.90;99433.81;5092374;28;20110;-28
2022/05/23 03:03:27;;;;;;;6.57;5.15;;;;;;;15.39;69.81;99415.31;5092084;28;20027;-29
2022/05/23 03:05:53;;;;;;;7.97;5.03;;;;;;;15.11;70.70;99433.50;5110230;28;20034;-28
2022/05/23 03:08:21;;;;;;;7.82;5.05;;;;;;;15.39;69.79;99436.81;5110357;28;20057;-31
2022/05/23 03:10:49;;;;;;;8.85;5.13;;;;;;;15.19;70.18;99418.78;5091626;28;20019;-30
2022/05/23 03:13:14;;;;;;;7.75;5.18;;;;;;;15.22;70.94;99426.28;5091488;28;20040;-29
2022/05/23 03:15:40;;;;;;;8.48;4.90;;;;;;;15.09;70.90;99418.75;5110166;28;20031;-28
2022/05/23 03:18:06;;;;;;;8.40;5.50;;;;;;;15.26;70.24;99425.50;5110370;28;20035;-29
2022/05/23 03:20:31;;;;;;;10.35;5.88;;;;;;;15.19;70.48;99443.75;5110119;28;20054;-33
2022/05/23 03:28:25;;;;;;;8.07;5.75;;;;;;;15.31;70.79;99445.41;5109074;28;20050;-31
2022/05/23 03:30:51;;;;;;;8.82;5.32;;;;;;;15.36;71.00;99448.09;5090227;28;20658;-29
2022/05/23 03:33:17;;;;;;;8.60;5.72;;;;;;;15.43;70.45;99445.97;5090620;28;20039;-29
2022/05/23 03:35:43;;;;;;;9.70;5.78;;;;;;;15.47;70.77;99450.53;5090210;28;20032;-32
2022/05/23 03:38:10;;;;;;;7.90;5.53;;;;;;;15.59;70.62;99454.84;5108688;28;20063;-30
2022/05/23 03:40:37;;;;;;;7.15;5.65;;;;;;;15.74;69.40;99443.34;5089656;28;20054;-28
2022/05/23 03:43:04;;;;;;;8.15;6.60;;;;;;;15.72;69.73;99448.97;5109570;28;20111;-31
2022/05/23 03:45:30;;;;;;;7.80;5.68;;;;;;;15.73;69.46;99455.16;5090971;28;20184;-30
2022/05/23 03:47:57;;;;;;;7.90;5.93;;;;;;;15.41;71.19;99448.09;5091225;28;20047;-32
2022/05/23 03:50:25;;;;;;;7.85;5.90;;;;;;;15.42;70.63;99433.59;5090944;28;20039;-33
2022/05/23 03:52:52;;;;;;;;;;;;;;;15.58;70.62;99451.34;5091022;28;20027;-30
2022/05/23 03:55:17;;;;;;;8.50;6.15;;;;;;;15.49;70.96;99442.22;5108783;28;19919;-31
2022/05/23 03:57:43;;;;;;;29.58;8.02;;;;;;;15.73;70.97;99458.63;5090832;28;20035;-31
2022/05/23 04:00:12;;;;;;;10.57;6.40;;;;;;;15.88;70.01;99452.50;5109527;28;20418;-31
2022/05/23 04:02:38;;;;;;;10.32;6.25;;;;;;;15.93;70.38;99457.06;5108912;28;20052;-29
2022/05/23 04:05:04;;;;;;;9.30;6.45;;;;;;;16.16;69.64;99455.69;5109363;28;20067;-30
2022/05/23 04:07:31;;;;;;;10.27;6.03;;;;;;;16.29;69.21;99471.28;5090212;28;20027;-35
2022/05/23 04:09:56;;;;;;;8.10;5.85;;;;;;;16.20;69.73;99470.22;5090938;28;20032;-32
2022/05/23 04:12:22;;;;;;;9.63;5.57;;;;;;;16.04;70.22;99475.63;5090480;28;20028;-29
2022/05/23 04:14:48;;;;;;;8.93;6.22;;;;;;;16.12;69.89;99465.38;5108817;28;20555;-29
2022/05/23 04:17:13;;;;;;;7.72;5.97;;;;;;;16.36;68.34;99460.25;5109587;28;20035;-31
2022/05/23 04:19:39;;;;;;;9.77;6.07;;;;;;;16.44;68.03;99457.78;5108640;28;20031;-30
2022/05/23 04:22:04;;;;;;;11.63;6.80;;;;;;;16.48;68.39;99466.94;5108592;28;20040;-29
2022/05/23 04:24:30;;;;;;;7.75;5.93;;;;;;;16.79;67.74;99469.53;5108732;28;20054;-30
2022/05/23 04:26:57;;;;;;;8.75;6.00;;;;;;;16.94;67.56;99476.00;5108591;28;20027;-29
2022/05/23 04:29:23;;;;;;;8.10;6.35;;;;;;;16.97;67.34;99468.16;5108739;28;20024;-29
2022/05/23 04:31:49;;;;;;;7.95;5.80;;;;;;;17.07;66.75;99468.13;5090280;28;20407;-28
2022/05/23 04:36:59;;;;;;;9.93;6.07;;;;;;;17.05;67.42;99472.19;5108965;28;20115;-31
2022/05/23 04:39:25;;;;;;;9.00;5.80;;;;;;;17.22;66.68;99467.28;5108244;28;20064;-31
2022/05/23 04:41:50;;;;;;;7.78;6.00;;;;;;;17.32;66.05;99458.31;5090119;28;20486;-30
2022/05/23 04:44:16;;;;;;;9.20;6.05;;;;;;;17.43;65.04;99456.38;5108382;28;20035;-30
2022/05/23 04:49:41;;;;;;;9.93;6.10;;;;;;;17.39;65.14;99455.31;5108226;28;20016;-29
2022/05/23 04:49:50;;;;;;;10.00;5.78;;;;;;;17.38;64.53;99454.50;5108139;28;20586;-28
2022/05/23 04:52:19;;;;;;;8.93;5.50;;;;;;;17.33;64.59;99468.00;5089983;28;20034;-31
2022/05/23 04:54:45;;;;;;;10.80;5.63;;;;;;;17.39;64.17;99452.63;5108317;28;20466;-29
2022/05/23 04:57:11;;;;;;;8.00;5.82;;;;;;;17.48;64.49;99464.41;5108182;28;20118;-28
2022/05/23 04:59:36;;;;;;;8.25;5.63;;;;;;;17.69;64.35;99462.38;5107850;28;20035;-34
2022/05/23 05:02:03;;;;;;;8.80;6.00;;;;;;;17.76;62.98;99445.91;5108367;28;20015;-29
2022/05/23 05:04:30;;;;;;;6.75;5.35;;;;;;;17.97;62.51;99460.84;5107870;28;20028;-28
2022/05/23 05:06:56;;;;;;;9.07;5.93;;;;;;;18.26;62.21;99455.47;5089561;28;20019;-28
2022/05/23 05:09:21;;;;;;;8.75;5.97;;;;;;;18.33;61.60;99440.81;5107818;28;20268;-33
2022/05/23 05:11:47;;;;;;;6.95;5.28;;;;;;;18.70;60.09;99460.97;5089404;28;20102;-29
2022/05/23 05:14:12;;;;;;;9.18;5.80;;;;;;;19.01;59.34;99427.09;5107784;28;20045;-30
2022/05/23 05:16:38;;;;;;;7.15;5.47;;;;;;;19.20;58.44;99443.34;5107777;28;20502;-29
2022/05/23 05:19:03;;;;;;;7.10;5.45;;;;;;;18.95;57.97;99435.56;5107882;28;20023;-31
2022/05/23 05:21:29;;;;;;;7.55;5.18;;;;;;;18.97;58.30;99455.00;5107795;28;20502;-29
2022/05/23 05:23:55;;;;;;;8.68;4.93;;;;;;;19.09;57.34;99449.19;5107802;28;20028;-31
2022/05/23 05:26:20;;;;;;;10.00;5.55;;;;;;;18.98;59.37;99434.97;5107537;28;20087;-32
2022/05/23 05:28:46;;;;;;;8.70;5.20;;;;;;;19.38;58.64;99438.25;5107109;28;20106;-31
2022/05/23 05:31:23;;;;;;;7.18;5.53;;;;;;;19.44;58.13;99464.09;5107670;28;20031;-30
2022/05/23 05:33:55;;;;;;;7.18;4.90;;;;;;;19.57;57.15;99447.13;5089082;28;20019;-29
2022/05/23 05:36:28;;;;;;;10.27;5.65;;;;;;;19.62;57.55;99448.97;5089149;28;20035;-34
2022/05/23 05:39:00;;;;;;;7.93;5.57;;;;;;;19.60;56.91;99435.75;5088786;28;20115;-35
2022/05/23 05:41:31;;;;;;;7.30;5.20;;;;;;;19.65;57.28;99451.06;5088658;28;20166;-32
2022/05/23 05:44:04;;;;;;;8.75;5.40;;;;;;;19.62;56.51;99430.84;5088994;28;20036;-29
2022/05/23 05:46:42;;;;;;;7.43;5.47;;;;;;;19.82;57.85;99458.72;5088593;28;20035;-29
2022/05/23 05:49:17;;;;;;;9.45;5.50;;;;;;;19.99;56.49;99452.75;5088764;28;20036;-29
2022/05/23 05:51:44;;;;;;;6.97;5.03;;;;;;;20.17;56.04;99445.69;5106969;28;20046;-31
2022/05/23 05:54:16;;;;;;;8.63;4.90;;;;;;;20.16;55.09;99446.78;5107281;28;20023;-29
2022/05/23 05:56:45;;;;;;;6.57;5.07;;;;;;;20.07;54.94;99430.41;5107043;28;20043;-30
2022/05/23 05:59:11;;;;;;;8.05;5.18;;;;;;;20.25;55.28;99450.41;5107155;28;20023;-29
2022/05/23 06:01:37;;;;;;;8.52;5.47;;;;;;;20.18;55.15;99444.56;5107358;28;20503;-29
2022/05/23 06:04:02;;;;;;;7.35;4.68;;;;;;;20.41;56.00;99445.50;5106853;28;20019;-34
2022/05/23 06:11:55;;;;;;;9.05;5.20;;;;;;;20.75;54.24;99453.28;5106892;28;20116;-33
2022/05/23 06:14:21;;;;;;;6.28;4.70;;;;;;;20.83;52.58;99446.34;5106866;28;20388;-31
2022/05/23 06:16:46;;;;;;;6.07;3.90;;;;;;;20.99;51.41;99433.28;5107240;28;20867;-29
2022/05/23 06:19:11;;;;;;;7.35;4.32;;;;;;;21.01;52.45;99433.78;5111549;28;20032;-29
2022/05/23 06:21:37;;;;;;;6.80;4.18;;;;;;;21.39;51.22;99422.63;5111074;28;20024;-30
2022/05/23 06:24:03;;;;;;;6.03;3.50;;;;;;;21.69;51.67;99420.34;5111193;28;20030;-31
2022/05/23 06:26:28;;;;;;;6.93;4.80;;;;;;;22.03;49.51;99439.59;5092359;28;20042;-34
2022/05/23 06:28:54;;;;;;;7.97;3.80;;;;;;;22.13;47.98;99435.00;5110973;28;20023;-30
2022/05/23 06:31:21;;;;;;;8.00;3.72;;;;;;;22.11;48.67;99432.59;5110984;28;20057;-29
2022/05/23 06:33:47;;;;;;;7.57;3.42;;;;;;;22.15;48.02;99430.88;5110981;28;20034;-29
2022/05/23 06:36:14;;;;;;;6.90;3.20;;;;;;;22.40;47.77;99445.72;5111191;28;20031;-35
2022/05/23 06:38:41;;;;;;;6.75;3.50;;;;;;;22.33;45.69;99445.38;5092441;28;20032;-30
2022/05/23 06:41:09;;;;;;;6.30;3.28;;;;;;;22.29;46.26;99438.94;5110729;28;20056;-29
2022/05/23 06:43:35;;;;;;;5.78;3.20;;;;;;;22.66;48.04;99448.53;5092022;28;20060;-29
2022/05/23 06:46:02;;;;;;;5.57;3.10;;;;;;;22.77;46.63;99432.75;5110943;28;20031;-30
2022/05/23 06:48:28;;;;;;;9.02;3.70;;;;;;;23.04;46.25;99437.13;5110814;28;20030;-39
2022/05/23 06:50:53;;;;;;;7.40;3.20;;;;;;;22.98;43.80;99424.00;5110651;28;20030;-32
2022/05/23 06:53:21;;;;;;;7.20;3.30;;;;;;;23.22;43.75;99443.41;5092518;28;20028;-33
2022/05/23 06:55:46;;;;;;;5.45;3.03;;;;;;;23.15;44.07;99437.66;5092048;28;20031;-29
2022/05/23 06:58:12;;;;;;;6.05;2.95;;;;;;;23.24;43.02;99443.91;5091853;28;20084;-31
2022/05/23 07:00:38;;;;;;;8.23;3.30;;;;;;;23.13;43.88;99429.00;5110237;28;20127;-29
2022/05/23 07:03:05;;;;;;;7.13;3.70;;;;;;;23.27;43.84;99432.38;5092364;28;20136;-29
2022/05/23 07:13:44;;;;;;;8.10;3.45;;;;;;;23.97;43.26;99423.41;5110515;28;20034;-31
2022/05/23 07:16:10;;;;;;;6.03;3.10;;;;;;;24.07;41.70;99423.06;5110227;28;20028;-31
2022/05/23 07:18:37;;;;;;;3.50;2.45;;;;;;;24.17;40.80;99430.06;5110154;28;20024;-29
2022/05/23 07:21:06;;;;;;;3.35;2.38;;;;;;;24.32;39.99;99429.53;5110215;28;20073;-32
2022/05/23 07:23:31;;;;;;;4.78;2.17;;;;;;;24.51;39.36;99415.53;5109730;28;20027;-30
2022/05/23 07:25:57;;;;;;;5.20;2.20;;;;;;;24.77;38.43;99426.31;5109976;28;20060;-30
2022/05/23 07:28:22;;;;;;;4.53;1.73;;;;;;;24.81;37.06;99429.97;5109045;28;20039;-33
2022/05/23 07:30:48;;;;;;;6.85;2.85;;;;;;;25.03;38.41;99430.81;5109430;28;20061;-31
2022/05/23 07:33:13;;;;;;;5.45;2.40;;;;;;;25.16;34.99;99440.66;5109663;28;20031;-34
2022/05/23 07:35:39;;;;;;;6.72;2.20;;;;;;;25.16;34.74;99442.59;5090996;28;20051;-32
2022/05/23 07:38:04;;;;;;;4.40;2.20;;;;;;;24.70;35.23;99427.94;5109703;28;20039;-30
2022/05/23 07:40:30;;;;;;;4.80;2.00;;;;;;;24.81;34.81;99440.09;5109401;28;20136;-29
2022/05/23 07:42:55;;;;;;;2.92;1.80;;;;;;;24.81;31.62;99440.09;5091223;28;20035;-35
2022/05/23 07:45:20;;;;;;;3.50;1.85;;;;;;;25.07;32.35;99442.66;5091188;28;20027;-29
2022/05/23 07:47:46;;;;;;;5.75;2.53;;;;;;;24.87;33.07;99427.88;5109449;28;20019;-35
2022/05/23 07:50:12;;;;;;;4.70;2.00;;;;;;;25.13;34.07;99441.34;5109334;28;20098;-30
2022/05/23 07:52:38;;;;;;;4.38;2.40;;;;;;;25.60;34.13;99443.91;5090922;28;20027;-29
2022/05/23 08:00:34;;;;;;;4.85;2.10;;;;;;;25.83;33.42;99446.25;5109186;28;20108;-29
2022/05/23 08:03:10;;;;;;;4.20;1.75;;;;;;;26.10;30.94;99453.09;5090603;28;20035;-29
2022/05/23 08:05:37;;;;;;;3.28;1.80;;;;;;;25.75;30.71;99428.81;5090928;28;20035;-29
2022/05/23 08:08:02;;;;;;;3.22;1.60;;;;;;;26.00;31.75;99445.31;5090695;28;20035;-31
2022/05/23 08:10:28;;;;;;;2.35;1.70;;;;;;;26.02;31.36;99429.38;5109003;28;20039;-29
2022/05/23 08:12:55;;;;;;;5.82;2.00;;;;;;;25.95;30.95;99442.78;5090791;28;20622;-34
2022/05/23 08:15:24;;;;;;;4.38;2.35;;;;;;;26.24;32.48;99433.66;5108788;28;20031;-30
2022/05/23 08:17:49;;;;;;;3.83;2.03;;;;;;;26.43;32.10;99436.63;5109187;28;20109;-30
2022/05/23 08:20:15;;;;;;;6.68;1.90;;;;;;;26.23;30.78;99438.28;5108879;28;20040;-31
2022/05/23 08:22:41;;;;;;;4.00;1.92;;;;;;;26.01;30.97;99428.59;5090436;28;20026;-29
2022/05/23 08:25:07;;;;;;;4.68;1.67;;;;;;;26.39;29.52;99430.22;5108707;28;20031;-32
2022/05/23 08:27:33;;;;;;;3.25;1.75;;;;;;;26.46;29.87;99414.06;5090265;28;20418;-34
2022/05/23 08:29:59;;;;;;;3.87;1.70;;;;;;;25.96;31.29;99412.41;5090179;28;20085;-29
2022/05/23 08:32:25;;;;;;;3.50;1.88;;;;;;;25.94;30.78;99406.47;5090511;28;20122;-30
2022/05/23 08:34:50;;;;;;;4.70;1.67;;;;;;;26.38;29.28;99425.13;5108973;28;20034;-32
2022/05/23 08:37:16;;;;;;;4.22;1.77;;;;;;;26.92;31.02;99426.84;5108680;28;20046;-30
2022/05/23 08:39:42;;;;;;;2.88;1.55;;;;;;;27.01;29.18;99432.97;5107992;28;20079;-29
2022/05/23 08:42:34;;;;;;;4.90;1.70;;;;;;;26.94;30.37;99430.03;5090041;28;20038;-29
2022/05/23 08:45:37;;;;;;;3.42;1.75;;;;;;;26.78;29.21;99419.78;5062675;28;20116;-29
2022/05/23 08:48:23;;;;;;;3.20;1.80;;;;;;;26.85;29.43;99433.69;5076595;28;20043;-33
2022/05/23 08:51:02;;;;;;;8.07;2.30;;;;;;;27.23;29.67;99416.06;5089570;28;20123;-29
2022/05/23 08:53:42;;;;;;;3.55;2.10;;;;;;;27.55;31.02;99421.69;5089807;28;20536;-32
2022/05/23 08:56:40;;;;;;;5.82;1.77;;;;;;;27.39;30.85;99423.56;5108339;28;20032;-30
2022/05/23 08:59:33;;;;;;;4.68;2.03;;;;;;;27.37;28.65;99417.66;5101150;28;20045;-31
2022/05/23 09:02:09;;;;;;;4.25;2.17;;;;;;;27.55;30.47;99412.69;5093214;28;20043;-30
2022/05/23 09:04:47;;;;;;;3.08;2.03;;;;;;;27.83;28.81;99413.47;5107931;28;20047;-31
2022/05/23 09:07:22;;;;;;;4.13;2.15;;;;;;;27.92;29.06;99413.31;5107694;28;20028;-29
2022/05/23 09:09:49;;;;;;;3.53;2.05;;;;;;;27.85;30.33;99410.38;5108167;28;20027;-34
2022/05/23 09:12:15;;;;;;;4.05;2.08;;;;;;;28.19;28.75;99388.94;5108036;28;20027;-33
2022/05/23 09:14:41;;;;;;;3.83;2.42;;;;;;;28.21;28.18;99381.16;5089287;28;20027;-31
2022/05/23 09:17:21;;;;;;;5.05;2.17;;;;;;;28.55;27.00;99398.06;5089459;28;20042;-32
2022/05/23 09:20:03;;;;;;;4.03;2.15;;;;;;;28.52;27.63;99390.53;5089252;28;20427;-32
2022/05/23 09:22:43;;;;;;;3.88;1.98;;;;;;;28.83;28.46;99387.75;5089172;28;20105;-30
2022/05/23 09:25:11;;;;;;;5.00;1.98;;;;;;;28.55;28.25;99387.88;5107846;28;20035;-29
2022/05/23 09:27:40;;;;;;;3.33;1.90;;;;;;;28.51;27.23;99381.53;5107772;28;20036;-31
2022/05/23 09:30:15;;;;;;;4.60;2.40;;;;;;;29.11;27.12;99378.53;5089340;28;20024;-30
2022/05/23 09:33:08;;;;;;;4.90;2.08;;;;;;;28.67;28.16;99362.28;5107743;28;20115;-30
2022/05/23 09:35:43;;;;;;;3.20;1.90;;;;;;;28.34;27.45;99371.69;5107516;28;20027;-30
2022/05/23 09:38:14;;;;;;;3.35;1.63;;;;;;;27.63;26.96;99357.75;5107536;28;20488;-29
2022/05/23 09:40:40;;;;;;;3.05;1.60;;;;;;;27.93;27.98;99368.34;5088623;28;20058;-29
2022/05/23 09:49:24;;;;;;;5.10;1.90;;;;;;;29.10;29.15;99374.19;5107396;28;20066;-31
2022/05/23 09:51:58;;;;;;;4.22;2.03;;;;;;;28.94;26.53;99371.50;5079103;28;20040;-28
2022/05/23 09:54:33;;;;;;;4.85;1.77;;;;;;;29.43;26.32;99364.69;5088844;28;20679;-29
2022/05/23 09:57:03;;;;;;;3.45;1.80;;;;;;;29.42;24.30;99349.34;5107307;28;20539;-32
2022/05/23 09:59:34;;;;;;;3.72;1.70;;;;;;;29.45;26.28;99363.16;5088383;28;20032;-32
2022/05/23 10:02:21;;;;;;;4.15;2.13;;;;;;;29.56;28.30;99357.84;5107106;28;20031;-31
2022/05/23 10:04:49;;;;;;;4.32;1.73;;;;;;;29.55;25.58;99356.28;5107015;28;20031;-31
2022/05/23 10:07:37;;;;;;;3.10;1.50;;;;;;;29.44;26.41;99356.09;5088790;28;20032;-32
2022/05/23 10:10:18;;;;;;;4.93;1.75;;;;;;;29.55;26.28;99344.50;5107324;28;20104;-30
2022/05/23 10:12:44;;;;;;;5.93;2.08;;;;;;;29.67;24.56;99335.28;5088791;28;20027;-29
2022/05/23 10:15:17;;;;;;;2.85;1.75;;;;;;;29.03;26.12;99341.09;5107156;28;20064;-32
2022/05/23 10:17:43;;;;;;;3.55;2.42;;;;;;;28.47;26.63;99344.97;5088726;28;20050;-34
2022/05/23 10:20:34;;;;;;;3.28;1.70;;;;;;;27.90;26.09;99341.63;5106883;28;20050;-29
2022/05/23 10:23:22;;;;;;;4.15;1.48;;;;;;;28.25;28.66;99335.44;5088703;28;20525;-31
2022/05/23 10:26:00;;;;;;;2.97;1.60;;;;;;;29.27;28.01;99342.78;5088454;28;20039;-33
2022/05/23 10:28:40;;;;;;;3.08;1.52;;;;;;;29.47;24.51;99343.56;5106869;28;20089;-31
2022/05/23 10:31:12;;;;;;;3.28;1.63;;;;;;;29.45;26.02;99335.69;5088473;28;20111;-29
2022/05/23 10:33:39;;;;;;;2.95;1.52;;;;;;;29.36;26.56;99337.06;5107028;28;20031;-34
2022/05/23 10:36:21;;;;;;;3.30;1.60;;;;;;;30.14;25.24;99315.69;5088299;28;20081;-32
2022/05/23 10:44:40;;;;;;;8.15;1.80;;;;;;;30.33;26.13;99334.09;5106787;28;20464;-38
2022/05/23 10:47:15;;;;;;;17.02;2.63;;;;;;;30.84;23.69;99324.56;5071737;28;20074;-29
2022/05/23 10:50:00;;;;;;;2.80;1.65;;;;;;;30.66;24.14;99318.81;5106861;28;20521;-29
2022/05/23 10:52:47;;;;;;;4.38;1.60;;;;;;;29.68;25.12;99320.38;5088690;28;20105;-29
2022/05/23 10:55:19;;;;;;;3.00;1.60;;;;;;;29.07;25.31;99303.53;5088302;28;20031;-30
2022/05/23 10:58:08;;;;;;;3.58;1.30;;;;;;;29.67;25.12;99307.78;5088453;28;20047;-31
2022/05/23 11:00:54;;;;;;;2.80;1.30;;;;;;;29.86;25.94;99320.72;5088145;28;20059;-29
2022/05/23 11:03:26;;;;;;;3.50;1.77;;;;;;;30.28;24.52;99315.13;5107730;28;20765;-30
2022/05/23 11:06:17;;;;;;;5.38;1.60;;;;;;;30.65;22.63;99314.50;5110446;28;20110;-32
2022/05/23 11:09:22;;;;;;;4.90;1.80;;;;;;;30.86;25.21;99313.19;5098487;28;20043;-32
2022/05/23 11:11:59;;;;;;;1.95;1.35;;;;;;;30.89;23.73;99304.19;5105375;28;20066;-30
2022/05/23 11:14:35;;;;;;;3.20;1.50;;;;;;;30.63;22.78;99303.06;5109849;28;20031;-32
2022/05/23 11:17:23;;;;;;;2.42;1.48;;;;;;;31.16;22.71;99299.41;5091683;28;20028;-29
2022/05/23 11:20:06;;;;;;;3.50;1.25;;;;;;;31.03;21.99;99298.88;5091727;28;20096;-42
2022/05/23 11:22:42;;;;;;;3.50;1.10;;;;;;;31.39;20.62;99283.53;5110074;28;20030;-28
2022/05/23 11:25:26;;;;;;;4.20;1.20;;;;;;;31.34;21.98;99291.34;5091724;28;20055;-31
2022/05/23 11:33:58;;;;;;;3.28;1.30;;;;;;;31.48;22.14;99274.97;5109758;28;20092;-31
2022/05/23 11:36:44;;;;;;;3.55;1.48;;;;;;;30.97;22.04;99268.13;5091431;28;20044;-29
2022/05/23 11:39:44;;;;;;;2.07;1.30;;;;;;;31.28;22.31;99273.56;5109830;28;20074;-31
2022/05/23 11:42:13;;;;;;;3.35;1.38;;;;;;;30.97;21.76;99272.84;5109812;28;20280;-30
2022/05/23 11:44:41;;;;;;;2.17;1.10;;;;;;;31.54;22.60;99261.66;5109518;28;20046;-33
2022/05/23 11:47:21;;;;;;;4.80;1.42;;;;;;;31.55;22.85;99255.75;5109421;28;20027;-30
2022/05/23 11:49:59;;;;;;;3.15;1.10;;;;;;;31.48;21.66;99252.16;5091060;28;20024;-30
2022/05/23 11:52:41;;;;;;;3.25;1.30;;;;;;;31.91;20.48;99236.72;5109547;28;20040;-32
2022/05/23 11:55:30;;;;;;;3.92;1.20;;;;;;;32.47;20.05;99250.50;5091017;28;20560;-32
2022/05/23 11:58:22;;;;;;;4.57;1.30;;;;;;;32.52;20.58;99239.09;5109111;28;20027;-30
2022/05/23 12:01:14;;;;;;;3.42;1.17;;;;;;;32.76;21.34;99252.25;5090583;28;20035;-29
2022/05/23 12:03:55;;;;;;;4.13;1.00;;;;;;;32.89;19.72;99249.13;5103858;28;20104;-30
2022/05/23 12:06:24;;;;;;;2.25;1.05;;;;;;;32.72;19.53;99245.91;5090747;28;20031;-31
2022/05/23 12:09:01;;;;;;;3.08;1.00;;;;;;;33.49;19.99;99245.72;5109279;28;20062;-33
2022/05/23 12:11:37;;;;;;;1.88;0.90;;;;;;;33.67;19.74;99242.97;5090887;28;20456;-30
2022/05/23 12:14:11;;;;;;;3.47;1.10;;;;;;;33.64;18.75;99238.25;5090491;28;20031;-32
2022/05/23 12:16:42;;;;;;;1.83;0.90;;;;;;;33.64;18.74;99248.53;5108299;28;20031;-29
2022/05/23 12:19:19;;;;;;;5.20;1.08;;;;;;;33.07;18.73;99243.66;5090362;28;20055;-36
2022/05/23 12:21:46;;;;;;;1.48;0.93;;;;;;;32.70;18.77;99223.41;5090900;28;20031;-30
2022/05/23 12:24:21;;;;;;;2.45;1.02;;;;;;;32.60;19.03;99237.97;5090335;28;20031;-30
2022/05/23 12:26:53;;;;;;;4.35;1.00;;;;;;;32.50;19.09;99235.94;5090303;28;20027;-29
2022/05/23 12:29:30;;;;;;;1.95;1.17;;;;;;;33.12;19.80;99241.34;5090096;28;20027;-35
2022/05/23 12:32:05;;;;;;;4.00;1.20;;;;;;;33.91;19.38;99244.13;5109021;28;20744;-32
2022/05/23 12:34:33;;;;;;;3.15;0.88;;;;;;;33.36;18.90;99227.94;5108364;28;20035;-32
2022/05/23 12:37:01;;;;;;;2.88;1.00;;;;;;;33.58;18.07;99223.22;5090193;28;20063;-30
2022/05/23 12:39:44;;;;;;;2.05;0.80;;;;;;;34.27;18.51;99241.34;5089895;28;20435;-32